createdAt,value
2022-08-02T00:00:38.941Z,101364.88
2022-08-02T00:03:05.823Z,101365.97
2022-08-02T00:05:32.852Z,101358.66
2022-08-02T00:07:59.860Z,101364.66
2022-08-02T00:10:27.137Z,101367.06
2022-08-02T00:12:54.159Z,101367.06
2022-08-02T00:15:22.673Z,101369.50
2022-08-02T00:17:49.917Z,101363.25
2022-08-02T00:20:17.379Z,101356.75
2022-08-02T00:22:44.822Z,101360.78
2022-08-02T00:25:12.067Z,101363.75
2022-08-02T00:27:38.950Z,101371.91
2022-08-02T00:30:07.000Z,101359.66
2022-08-02T00:32:34.869Z,101365.56
2022-08-02T00:35:01.887Z,101363.91
2022-08-02T00:37:28.954Z,101367.66
2022-08-02T00:39:57.469Z,101364.09
2022-08-02T00:42:24.693Z,101363.53
2022-08-02T00:44:51.605Z,101362.94
2022-08-02T00:47:19.439Z,101359.91
2022-08-02T00:49:47.478Z,101359.09
2022-08-02T00:52:15.085Z,101362.28
2022-08-02T00:54:42.590Z,101372.59
2022-08-02T00:57:09.556Z,101368.78
2022-08-02T00:59:36.790Z,101362.78
2022-08-02T01:02:03.954Z,101370.66
2022-08-02T01:04:32.170Z,101378.53
2022-08-02T01:07:01.341Z,101373.63
2022-08-02T01:09:28.663Z,101381.19
2022-08-02T01:11:56.018Z,101375.47
2022-08-02T01:14:25.068Z,101379.00
2022-08-02T01:17:21.239Z,101383.34
2022-08-02T01:20:08.915Z,101374.09
2022-08-02T01:23:02.938Z,101378.72
2022-08-02T01:26:27.664Z,101377.09
2022-08-02T01:29:20.098Z,101383.63
2022-08-02T01:31:51.247Z,101378.19
2022-08-02T01:34:32.818Z,101377.09
2022-08-02T01:37:16.442Z,101381.16
2022-08-02T01:39:46.129Z,101385.25
2022-08-02T01:42:14.882Z,101388.50
2022-08-02T01:44:43.724Z,101403.16
2022-08-02T01:47:18.006Z,101390.34
2022-08-02T01:49:50.526Z,101393.06
2022-08-02T01:52:22.349Z,101389.53
2022-08-02T01:55:01.631Z,101390.88
2022-08-02T01:57:35.178Z,101393.88
2022-08-02T02:00:11.661Z,101396.31
2022-08-02T02:02:44.063Z,101387.88
2022-08-02T02:05:16.670Z,101383.25
2022-08-02T02:07:46.155Z,101391.69
2022-08-02T02:10:21.182Z,101387.34
2022-08-02T02:12:51.306Z,101382.47
2022-08-02T02:15:18.991Z,101399.63
2022-08-02T02:18:10.508Z,101393.66
2022-08-02T02:20:37.898Z,101387.97
2022-08-02T02:23:04.913Z,101387.44
2022-08-02T02:25:35.784Z,101383.63
2022-08-02T02:28:33.130Z,101384.72
2022-08-02T02:31:08.633Z,101382.31
2022-08-02T02:33:47.749Z,101389.06
2022-08-02T02:36:21.354Z,101394.00
2022-08-02T02:38:50.758Z,101391.28
2022-08-02T02:41:21.185Z,101383.09
2022-08-02T02:43:49.933Z,101385.53
2022-08-02T02:46:21.667Z,101382.00
2022-08-02T02:48:51.536Z,101383.34
2022-08-02T02:51:19.993Z,101383.91
2022-08-02T02:54:30.417Z,101382.81
2022-08-02T02:56:38.913Z,101385.84
2022-08-02T02:59:08.525Z,101379.59
2022-08-02T03:01:57.045Z,101376.84
2022-08-02T03:04:25.181Z,101382.00
2022-08-02T03:06:52.273Z,101383.41
2022-08-02T03:09:19.543Z,101391.28
2022-08-02T03:11:46.679Z,101391.28
2022-08-02T03:14:14.408Z,101396.94
2022-08-02T03:16:53.563Z,101395.31
2022-08-02T03:19:22.569Z,101397.25
2022-08-02T03:21:57.383Z,101399.97
2022-08-02T03:24:28.148Z,101401.88
2022-08-02T03:26:56.276Z,101402.69
2022-08-02T03:29:23.248Z,101408.94
2022-08-02T03:31:51.000Z,101416.81
2022-08-02T03:34:18.088Z,101414.38
2022-08-02T03:36:51.529Z,101408.94
2022-08-02T03:39:20.954Z,101416.50
2022-08-02T03:41:49.512Z,101420.88
2022-08-02T03:44:17.907Z,101425.50
2022-08-02T03:46:45.403Z,101424.16
2022-08-02T03:49:16.627Z,101424.72
2022-08-02T03:51:45.400Z,101426.94
2022-08-02T03:54:13.298Z,101423.44
2022-08-02T03:56:40.597Z,101424.56
2022-08-02T03:59:13.329Z,101425.13
2022-08-02T04:01:41.226Z,101423.81
2022-08-02T04:04:08.527Z,101425.50
2022-08-02T04:06:35.968Z,101420.94
2022-08-02T04:09:07.417Z,101431.88
2022-08-02T04:11:34.460Z,101434.63
2022-08-02T04:14:06.645Z,101439.00
2022-08-02T04:16:56.194Z,101440.66
2022-08-02T04:19:48.674Z,101442.03
2022-08-02T04:22:21.881Z,101445.59
2022-08-02T04:24:54.881Z,101453.22
2022-08-02T04:27:50.702Z,101452.41
2022-08-02T04:30:11.273Z,101444.00
2022-08-02T04:32:39.058Z,101449.13
2022-08-02T04:35:23.508Z,101457.78
2022-08-02T04:38:05.789Z,101452.06
2022-08-02T04:40:38.547Z,101445.28
2022-08-02T04:43:05.549Z,101447.94
2022-08-02T04:45:33.472Z,101451.66
2022-08-02T04:48:07.670Z,101452.16
2022-08-02T04:50:35.410Z,101458.84
2022-08-02T04:53:03.031Z,101472.13
2022-08-02T04:55:30.212Z,101460.94
2022-08-02T04:57:58.528Z,101467.69
2022-08-02T05:00:27.725Z,101463.53
2022-08-02T05:02:57.129Z,101470.28
2022-08-02T05:05:24.404Z,101472.69
2022-08-02T05:07:51.667Z,101469.34
2022-08-02T05:10:19.117Z,101474.97
2022-08-02T05:12:46.153Z,101470.00
2022-08-02T05:15:22.139Z,101474.50
2022-08-02T05:17:49.539Z,101475.50
2022-08-02T05:20:18.356Z,101465.59
2022-08-02T05:22:45.430Z,101471.75
2022-08-02T05:25:12.869Z,101465.41
2022-08-02T05:27:40.017Z,101475.06
2022-08-02T05:30:08.899Z,101465.44
2022-08-02T05:32:54.454Z,101459.31
2022-08-02T05:35:23.621Z,101464.63
2022-08-02T05:37:52.263Z,101471.28
2022-08-02T05:43:15.178Z,101470.38
2022-08-02T05:45:42.724Z,101470.19
2022-08-02T05:48:09.959Z,101470.84
2022-08-02T05:50:45.181Z,101485.06
2022-08-02T05:53:45.830Z,101483.16
2022-08-02T05:56:34.513Z,101472.97
2022-08-02T05:59:29.208Z,101495.59
2022-08-02T06:02:02.699Z,101487.13
2022-08-02T06:04:58.490Z,101489.47
2022-08-02T06:07:25.854Z,101492.50
2022-08-02T06:09:53.211Z,101497.66
2022-08-02T06:12:21.550Z,101498.47
2022-08-02T06:14:54.052Z,101494.13
2022-08-02T06:17:22.374Z,101490.88
2022-08-02T06:19:51.696Z,101498.56
2022-08-02T06:22:31.639Z,101493.09
2022-08-02T06:25:05.804Z,101495.31
2022-08-02T06:27:34.093Z,101487.41
2022-08-02T06:30:04.249Z,101490.13
2022-08-02T06:32:34.310Z,101486.03
2022-08-02T06:35:03.179Z,101492.88
2022-08-02T06:37:43.096Z,101498.06
2022-08-02T06:40:19.560Z,101486.03
2022-08-02T06:43:07.480Z,101483.13
2022-08-02T06:45:35.578Z,101489.41
2022-08-02T06:48:03.789Z,101489.06
2022-08-02T06:50:31.270Z,101490.28
2022-08-02T06:52:58.907Z,101484.22
2022-08-02T06:55:25.881Z,101488.66
2022-08-02T06:57:53.852Z,101483.41
2022-08-02T07:00:20.902Z,101486.03
2022-08-02T07:02:49.944Z,101486.25
2022-08-02T07:05:16.959Z,101478.06
2022-08-02T07:07:44.097Z,101486.75
2022-08-02T07:10:11.478Z,101479.88
2022-08-02T07:12:39.850Z,101475.25
2022-08-02T07:15:10.011Z,101473.63
2022-08-02T07:17:37.174Z,101469.44
2022-08-02T07:20:05.429Z,101469.94
2022-08-02T07:22:32.517Z,101462.50
2022-08-02T07:25:00.349Z,101460.38
2022-08-02T07:27:28.699Z,101467.22
2022-08-02T07:29:56.558Z,101465.56
2022-08-02T07:32:26.641Z,101464.19
2022-08-02T07:34:55.615Z,101461.50
2022-08-02T07:37:35.067Z,101468.97
2022-08-02T07:40:21.016Z,101475.78
2022-08-02T07:43:02.978Z,101457.50
2022-08-02T07:45:35.726Z,101460.34
2022-08-02T07:48:03.404Z,101458.97
2022-08-02T07:50:36.184Z,101462.44
2022-08-02T07:53:03.137Z,101451.94
2022-08-02T07:55:39.418Z,101444.06
2022-08-02T07:58:13.290Z,101444.63
2022-08-02T08:01:05.386Z,101448.19
2022-08-02T08:03:32.335Z,101438.00
2022-08-02T08:05:59.419Z,101441.00
2022-08-02T08:11:17.318Z,101438.41
2022-08-02T08:14:13.332Z,101437.31
2022-08-02T08:16:43.344Z,101435.97
2022-08-02T08:19:10.343Z,101425.31
2022-08-02T08:21:37.407Z,101427.53
2022-08-02T08:24:04.888Z,101433.59
2022-08-02T08:26:32.133Z,101428.34
2022-08-02T08:29:02.026Z,101422.97
2022-08-02T08:31:29.056Z,101424.16
2022-08-02T08:33:56.860Z,101420.44
2022-08-02T08:36:23.832Z,101410.44
2022-08-02T08:38:51.186Z,101416.22
2022-08-02T08:41:19.313Z,101404.56
2022-08-02T08:43:52.907Z,101396.13
2022-08-02T08:46:29.538Z,101405.44
2022-08-02T08:49:04.006Z,101403.34
2022-08-02T08:51:36.694Z,101396.16
2022-08-02T08:54:06.678Z,101395.31
2022-08-02T08:56:36.108Z,101401.19
2022-08-02T08:59:04.658Z,101401.97
2022-08-02T09:01:49.802Z,101401.53
2022-08-02T09:04:19.449Z,101401.94
2022-08-02T09:06:46.594Z,101403.41
2022-08-02T09:09:13.484Z,101396.69
2022-08-02T09:11:40.830Z,101389.13
2022-08-02T09:14:08.074Z,101380.38
2022-08-02T09:16:41.148Z,101381.13
2022-08-02T09:19:26.142Z,101382.84
2022-08-02T09:22:07.909Z,101370.94
2022-08-02T09:24:45.254Z,101377.44
2022-08-02T09:27:18.747Z,101373.63
2022-08-02T09:30:14.295Z,101371.66
2022-08-02T09:32:48.330Z,101368.75
2022-08-02T09:36:07.050Z,101370.47
2022-08-02T09:38:23.482Z,101372.06
2022-08-02T09:40:56.136Z,101360.97
2022-08-02T09:43:39.489Z,101361.16
2022-08-02T09:46:30.717Z,101357.69
2022-08-02T09:49:09.804Z,101354.25
2022-08-02T09:51:57.766Z,101360.63
2022-08-02T09:54:28.709Z,101359.81
2022-08-02T09:56:59.725Z,101355.50
2022-08-02T09:59:28.840Z,101353.09
2022-08-02T10:02:02.580Z,101352.31
2022-08-02T10:04:34.082Z,101356.28
2022-08-02T10:07:07.256Z,101353.06
2022-08-02T10:09:34.928Z,101349.78
2022-08-02T10:12:03.517Z,101336.63
2022-08-02T10:14:35.043Z,101338.38
2022-08-02T10:17:05.371Z,101352.13
2022-08-02T10:20:02.189Z,101348.66
2022-08-02T10:22:20.965Z,101351.50
2022-08-02T10:24:49.443Z,101355.88
2022-08-02T10:27:20.219Z,101340.25
2022-08-02T10:29:55.392Z,101342.78
2022-08-02T10:32:33.455Z,101344.81
2022-08-02T10:35:18.987Z,101339.63
2022-08-02T10:38:03.989Z,101345.09
2022-08-02T10:40:55.538Z,101337.63
2022-08-02T10:43:31.583Z,101334.72
2022-08-02T10:46:24.002Z,101330.44
2022-08-02T10:52:02.384Z,101317.88
2022-08-02T10:54:37.389Z,101326.69
2022-08-02T10:57:25.429Z,101326.69
2022-08-02T11:00:12.409Z,101319.38
2022-08-02T11:02:47.462Z,101320.84
2022-08-02T11:05:43.379Z,101323.66
2022-08-02T11:08:22.396Z,101316.78
2022-08-02T11:11:20.038Z,101320.50
2022-08-02T11:14:08.869Z,101303.00
2022-08-02T11:16:57.983Z,101294.44
2022-08-02T11:19:28.906Z,101288.53
2022-08-02T11:22:11.693Z,101290.25
2022-08-02T11:24:40.759Z,101287.91
2022-08-02T11:27:10.225Z,101280.56
2022-08-02T11:29:43.750Z,101287.03
2022-08-02T11:35:10.214Z,101284.09
2022-08-02T11:37:44.379Z,101280.25
2022-08-02T11:40:19.686Z,101278.47
2022-08-02T11:42:51.084Z,101277.00
2022-08-02T11:45:20.870Z,101277.63
2022-08-02T11:47:52.153Z,101270.19
2022-08-02T11:50:30.424Z,101276.50
2022-08-02T11:52:58.052Z,101274.47
2022-08-02T11:55:32.245Z,101277.53
2022-08-02T11:58:06.112Z,101261.38
2022-08-02T12:00:34.148Z,101270.88
2022-08-02T12:03:01.385Z,101275.03
2022-08-02T12:06:03.064Z,101254.59
2022-08-02T12:08:19.011Z,101262.25
2022-08-02T12:10:50.298Z,101269.03
2022-08-02T12:13:17.219Z,101264.63
2022-08-02T12:15:46.754Z,101257.63
2022-08-02T12:18:39.375Z,101261.03
2022-08-02T12:21:29.889Z,101257.09
2022-08-02T12:23:59.674Z,101256.28
2022-08-02T12:26:29.660Z,101253.44
2022-08-02T12:28:58.146Z,101235.94
2022-08-02T12:31:56.898Z,101237.66
2022-08-02T12:34:30.050Z,101233.69
2022-08-02T12:37:10.652Z,101241.19
2022-08-02T12:39:46.434Z,101235.72
2022-08-02T12:42:16.479Z,101238.03
2022-08-02T12:45:00.255Z,101234.06
2022-08-02T12:47:36.158Z,101229.81
2022-08-02T12:50:30.375Z,101226.69
2022-08-02T12:53:14.189Z,101224.03
2022-08-02T12:56:02.324Z,101224.63
2022-08-02T12:58:31.950Z,101225.63
2022-08-02T13:01:00.949Z,101226.69
2022-08-02T13:04:09.316Z,101225.09
2022-08-02T13:06:39.837Z,101231.78
2022-08-02T13:09:17.309Z,101229.44
2022-08-02T13:11:49.599Z,101212.81
2022-08-02T13:14:16.825Z,101209.94
2022-08-02T13:16:46.294Z,101219.25
2022-08-02T13:19:15.601Z,101212.31
2022-08-02T13:22:02.707Z,101219.22
2022-08-02T13:24:39.572Z,101213.31
2022-08-02T13:27:21.449Z,101218.75
2022-08-02T13:30:13.459Z,101220.91
2022-08-02T13:32:40.477Z,101207.03
2022-08-02T13:35:07.793Z,101196.84
2022-08-02T13:37:47.965Z,101193.88
2022-08-02T13:40:23.016Z,101198.41
2022-08-02T13:42:50.568Z,101188.28
2022-08-02T13:45:17.618Z,101178.00
2022-08-02T13:48:03.684Z,101173.16
2022-08-02T13:50:32.668Z,101173.06
2022-08-02T13:52:59.892Z,101155.56
2022-08-02T13:55:27.916Z,101166.34
2022-08-02T13:57:54.878Z,101172.50
2022-08-02T14:00:35.746Z,101171.47
2022-08-02T14:03:07.529Z,101173.59
2022-08-02T14:05:47.793Z,101175.75
2022-08-02T14:08:20.437Z,101160.75
2022-08-02T14:11:13.105Z,101164.75
2022-08-02T14:13:40.090Z,101160.94
2022-08-02T14:16:07.302Z,101165.44
2022-08-02T14:18:34.309Z,101160.25
2022-08-02T14:21:01.285Z,101150.88
2022-08-02T14:23:50.322Z,101152.78
2022-08-02T14:26:27.133Z,101147.19
2022-08-02T14:28:55.419Z,101145.03
2022-08-02T14:31:22.679Z,101152.13
2022-08-02T14:33:49.596Z,101147.09
2022-08-02T14:36:27.232Z,101148.31
2022-08-02T14:38:56.190Z,101153.38
2022-08-02T14:41:23.659Z,101153.25
2022-08-02T14:44:05.742Z,101141.97
2022-08-02T14:46:34.892Z,101139.22
2022-08-02T14:49:03.546Z,101137.78
2022-08-02T14:51:32.232Z,101141.78
2022-08-02T14:54:05.993Z,101132.44
2022-08-02T14:56:35.722Z,101134.97
2022-08-02T14:59:02.674Z,101133.44
2022-08-02T15:01:31.332Z,101120.19
2022-08-02T15:03:58.344Z,101119.53
2022-08-02T15:06:28.265Z,101114.97
2022-08-02T15:08:55.233Z,101118.75
2022-08-02T15:11:25.522Z,101128.78
2022-08-02T15:13:52.697Z,101118.53
2022-08-02T15:16:26.017Z,101123.84
2022-08-02T15:19:06.521Z,101124.41
2022-08-02T15:21:41.731Z,101112.31
2022-08-02T15:24:19.694Z,101131.47
2022-08-02T15:26:46.991Z,101122.63
2022-08-02T15:29:14.170Z,101122.16
2022-08-02T15:31:41.890Z,101121.53
2022-08-02T15:34:09.435Z,101122.50
2022-08-02T15:36:36.565Z,101119.34
2022-08-02T15:39:03.891Z,101129.81
2022-08-02T15:41:30.815Z,101137.16
2022-08-02T15:44:00.395Z,101130.50
2022-08-02T15:46:32.178Z,101127.72
2022-08-02T15:49:00.121Z,101135.38
2022-08-02T15:51:27.491Z,101130.22
2022-08-02T15:53:54.354Z,101139.81
2022-08-02T15:56:24.116Z,101132.59
2022-08-02T15:58:56.877Z,101132.16
2022-08-02T16:01:37.969Z,101130.13
2022-08-02T16:04:07.499Z,101120.06
2022-08-02T16:06:36.057Z,101129.09
2022-08-02T16:09:03.573Z,101132.50
2022-08-02T16:11:30.872Z,101122.72
2022-08-02T16:13:59.200Z,101124.53
2022-08-02T16:16:31.844Z,101125.16
2022-08-02T16:19:45.977Z,101120.19
2022-08-02T16:21:48.800Z,101117.91
2022-08-02T16:24:15.810Z,101124.06
2022-08-02T16:26:43.128Z,101113.88
2022-08-02T16:29:10.719Z,101112.88
2022-08-02T16:31:42.501Z,101114.31
2022-08-02T16:34:10.771Z,101113.63
2022-08-02T16:36:38.208Z,101115.44
2022-08-02T16:39:05.704Z,101122.75
2022-08-02T16:41:50.388Z,101118.22
2022-08-02T16:44:29.051Z,101111.66
2022-08-02T16:47:02.005Z,101110.72
2022-08-02T16:50:06.109Z,101109.50
2022-08-02T16:52:23.563Z,101117.31
2022-08-02T16:54:51.234Z,101120.09
2022-08-02T16:57:19.909Z,101106.56
2022-08-02T16:59:57.645Z,101109.34
2022-08-02T17:02:28.001Z,101112.06
2022-08-02T17:04:56.658Z,101109.22
2022-08-02T17:08:08.204Z,101112.75
2022-08-02T17:10:11.737Z,101100.38
2022-08-02T17:12:39.687Z,101103.81
2022-08-02T17:16:08.228Z,101109.59
2022-08-02T17:17:56.130Z,101108.91
2022-08-02T17:20:24.227Z,101108.72
2022-08-02T17:22:52.506Z,101108.16
2022-08-02T17:25:21.537Z,101099.94
2022-08-02T17:27:55.613Z,101110.66
2022-08-02T17:30:26.600Z,101116.72
2022-08-02T17:33:11.975Z,101116.06
2022-08-02T17:35:39.981Z,101121.00
2022-08-02T17:38:10.960Z,101115.13
2022-08-02T17:40:45.039Z,101117.28
2022-08-02T17:43:14.545Z,101120.19
2022-08-02T17:46:00.017Z,101125.50
2022-08-02T17:48:49.388Z,101139.44
2022-08-02T17:52:15.453Z,101123.66
2022-08-02T17:54:08.439Z,101128.81
2022-08-02T17:56:36.991Z,101135.78
2022-08-02T18:02:05.969Z,101137.06
2022-08-02T18:04:35.535Z,101141.16
2022-08-02T18:07:09.377Z,101133.44
2022-08-02T18:09:37.121Z,101144.53
2022-08-02T18:12:14.175Z,101145.50
2022-08-02T18:14:48.941Z,101147.84
2022-08-02T18:17:16.783Z,101152.69
2022-08-02T18:19:55.292Z,101155.94
2022-08-02T18:22:26.389Z,101162.66
2022-08-02T18:24:53.899Z,101158.31
2022-08-02T18:27:20.905Z,101159.53
2022-08-02T18:29:47.954Z,101164.25
2022-08-02T18:33:55.093Z,101156.25
2022-08-02T18:35:15.038Z,101168.88
2022-08-02T18:37:45.438Z,101163.34
2022-08-02T18:40:16.018Z,101159.28
2022-08-02T18:42:43.160Z,101178.19
2022-08-02T18:45:19.807Z,101178.16
2022-08-02T18:47:50.842Z,101170.22
2022-08-02T18:50:19.596Z,101180.00
2022-08-02T18:52:51.018Z,101168.03
2022-08-02T18:56:00.021Z,101176.22
2022-08-02T18:58:18.177Z,101170.56
2022-08-02T19:00:48.078Z,101175.28
2022-08-02T19:03:19.525Z,101177.13
2022-08-02T19:05:53.466Z,101178.66
2022-08-02T19:08:25.594Z,101173.44
2022-08-02T19:10:56.304Z,101169.00
2022-08-02T19:13:24.627Z,101173.22
2022-08-02T19:15:52.885Z,101180.38
2022-08-02T19:18:20.139Z,101170.09
2022-08-02T19:20:59.576Z,101175.94
2022-08-02T19:23:31.677Z,101180.97
2022-08-02T19:26:00.466Z,101179.41
2022-08-02T19:28:29.195Z,101192.31
2022-08-02T19:30:58.483Z,101186.84
2022-08-02T19:34:06.490Z,101182.53
2022-08-02T19:36:17.071Z,101181.91
2022-08-02T19:38:49.208Z,101187.09
2022-08-02T19:41:16.691Z,101192.25
2022-08-02T19:44:26.859Z,101183.03
2022-08-02T19:46:31.247Z,101185.28
2022-08-02T19:49:00.956Z,101188.84
2022-08-02T19:51:49.577Z,101178.19
2022-08-02T19:54:18.700Z,101191.09
2022-08-02T19:56:47.343Z,101191.56
2022-08-02T19:59:14.592Z,101194.63
2022-08-02T20:01:46.449Z,101196.38
2022-08-02T20:04:22.857Z,101189.56
2022-08-02T20:06:50.735Z,101182.75
2022-08-02T20:09:22.615Z,101191.44
2022-08-02T20:11:54.497Z,101198.81
2022-08-02T20:14:27.095Z,101196.03
2022-08-02T20:16:56.885Z,101201.47
2022-08-02T20:19:24.575Z,101201.94
2022-08-02T20:21:56.805Z,101202.88
2022-08-02T20:24:27.565Z,101188.97
2022-08-02T20:26:58.921Z,101206.81
2022-08-02T20:29:43.340Z,101197.13
2022-08-02T20:32:22.741Z,101208.53
2022-08-02T20:34:50.778Z,101203.19
2022-08-02T20:37:59.191Z,101205.84
2022-08-02T20:40:07.768Z,101204.03
2022-08-02T20:42:34.887Z,101214.31
2022-08-02T20:45:02.727Z,101221.19
2022-08-02T20:47:39.210Z,101215.34
2022-08-02T20:50:30.875Z,101209.53
2022-08-02T20:53:25.955Z,101209.75
2022-08-02T20:55:57.264Z,101216.31
2022-08-02T20:58:27.156Z,101208.56
2022-08-02T21:00:59.561Z,101204.34
2022-08-02T21:03:39.203Z,101212.03
2022-08-02T21:06:14.851Z,101202.16
2022-08-02T21:08:46.109Z,101205.94
2022-08-02T21:11:14.595Z,101211.69
2022-08-02T21:13:47.426Z,101205.53
2022-08-02T21:16:31.141Z,101213.31
2022-08-02T21:19:00.200Z,101202.00
2022-08-02T21:21:29.673Z,101208.59
2022-08-02T21:23:59.126Z,101204.63
2022-08-02T21:26:28.171Z,101211.31
2022-08-02T21:29:00.990Z,101208.19
2022-08-02T21:31:32.110Z,101211.31
2022-08-02T21:34:01.777Z,101216.38
2022-08-02T21:39:18.319Z,101215.78
2022-08-02T21:41:46.127Z,101215.06
2022-08-02T21:44:19.160Z,101219.22
2022-08-02T21:46:49.076Z,101214.97
2022-08-02T21:49:40.697Z,101219.41
2022-08-02T21:52:09.730Z,101220.13
2022-08-02T21:54:39.868Z,101225.31
2022-08-02T21:57:15.137Z,101228.44
2022-08-02T21:59:45.440Z,101223.06
2022-08-02T22:02:14.254Z,101224.47
2022-08-02T22:04:41.558Z,101235.47
2022-08-02T22:07:23.853Z,101232.03
2022-08-02T22:09:52.759Z,101236.47
2022-08-02T22:12:20.203Z,101221.31
2022-08-02T22:14:54.028Z,101231.69
2022-08-02T22:17:50.737Z,101231.50
2022-08-02T22:20:18.326Z,101234.31
2022-08-02T22:22:50.807Z,101236.31
2022-08-02T22:25:27.096Z,101245.88
2022-08-02T22:28:39.087Z,101239.13
2022-08-02T22:31:04.471Z,101231.31
2022-08-02T22:34:00.113Z,101243.03
2022-08-02T22:36:43.585Z,101236.84
2022-08-02T22:39:19.444Z,101249.41
2022-08-02T22:42:05.900Z,101236.75
2022-08-02T22:44:35.625Z,101248.19
2022-08-02T22:47:06.921Z,101245.53
2022-08-02T22:49:38.396Z,101247.44
2022-08-02T22:52:14.204Z,101257.28
2022-08-02T22:54:43.408Z,101257.06
2022-08-02T22:57:11.301Z,101256.31
2022-08-02T22:58:49.596Z,101140.66
2022-08-02T22:59:11.343Z,101213.25
2022-08-02T22:59:40.331Z,101255.50
2022-08-02T23:02:10.225Z,101265.31
2022-08-02T23:04:37.802Z,101262.66
2022-08-02T23:07:05.210Z,101264.56
2022-08-02T23:09:32.475Z,101267.59
2022-08-02T23:11:59.407Z,101265.97
2022-08-02T23:14:26.724Z,101268.47
2022-08-02T23:17:11.920Z,101272.28
2022-08-02T23:19:50.972Z,101268.53
2022-08-02T23:22:24.246Z,101266.41
2022-08-02T23:24:57.600Z,101260.72
2022-08-02T23:27:25.622Z,101261.03
2022-08-02T23:29:52.870Z,101264.03
2022-08-02T23:32:22.907Z,101263.50
2022-08-02T23:34:57.031Z,101254.03
2022-08-02T23:37:24.321Z,101255.72
2022-08-02T23:39:52.093Z,101255.50
2022-08-02T23:42:19.319Z,101262.31
2022-08-02T23:44:48.463Z,101271.06
2022-08-02T23:47:16.797Z,101253.97
2022-08-02T23:49:44.010Z,101266.75
2022-08-02T23:52:11.225Z,101261.09
2022-08-02T23:54:39.700Z,101263.28
2022-08-02T23:57:20.087Z,101268.50
2022-08-02T23:59:51.761Z,101259.53
